Potsdam, NY

44° 42' 44"N, 74° 57' 12"W, Elevation 460 ft.
Eastern Time

Hourly observations for the last 72 hours

Date Time Temperature (°F) Humi-
dity

(%)
Wind
(mph)
Pressure Rain (in) Sun
(W/m2)
ET
(in)
Air Dew 6 Hour 1 Hr 3 Hr 6 Hr Day
Alt
(in)
Sea
Level

(mb)
Max Min
20 15:00 39.2 32.6 77 W 3 G 17 29.77 1008.3 0.04 0.31 58 0.019
20 14:00 38.3 32.0 78 W 5 G 16 29.75 1007.3 0.05 0.27 109 0.017
20 13:00 37.7 31.5 38.0 37.7 78 WSW 8 G 18 29.75 1007.3 0.04 0.12 0.21 0.22 54 0.015
20 12:00 37.8 31.2 77 W 7 G 19 29.74 1007.2 0.04 0.18 62 0.013
20 11:00 37.9 31.3 77 W 7 G 19 29.74 1007.0 0.04 0.14 53 0.012
20 10:00 38.0 31.1 76 W 5 G 19 29.70 1005.9 0.04 0.09 0.10 62 0.010
20 09:00 37.8 30.6 75 W 6 G 21 29.67 1004.9 0.02 0.06 60 0.009
20 08:00 37.8 30.3 74 W 6 G 20 29.65 1004.1 0.03 0.04 11 0.008
20 07:00 38.0 29.8 39.5 36.5 72 W 4 G 16 29.63 1003.6 0.01 0.01 0.01 0.01 0 0.007
20 06:00 38.6 29.0 68 WSW 5 G 18 29.60 1002.3 0.00 0 0.006
20 05:00 39.4 28.2 64 W 6 G 22 29.57 1001.4 0.00 0 0.005
20 04:00 38.5 27.8 65 WSW 3 G 15 29.56 1001.0 0.00 0 0.004
20 03:00 37.7 27.0 65 SW 4 G 15 29.59 1002.1 0.00 0 0.003
20 02:00 37.8 26.7 64 WSW 6 G 25 29.60 1002.5 0.00 0 0.001
20 01:00 36.7 26.4 36.8 28.4 66 SW 5 G 20 29.62 1003.0 0.00 0 0.000
20 00:00 35.9 26.0 67 SSW 7 G 18 29.65 1004.0 0.00 0 0.010
19 23:00 34.4 24.6 67 S 8 G 17 29.67 1004.8 0.00 0 0.009
19 22:00 32.3 23.6 70 SSW 6 G 17 29.71 1006.2 0.00 0 0.008
19 21:00 30.1 23.1 75 SSW 5 G 12 29.75 1007.4 0.00 0 0.007
19 20:00 28.7 23.3 80 S 2 G 12 29.77 1008.2 0.00 0 0.007
19 19:00 29.0 24.5 29.4 28.2 83 S 3 G 12 29.81 1009.5 0.00 0 0.007
19 18:00 29.4 25.2 84 SW 6 G 13 29.82 1009.7 0.00 0 0.007
19 17:00 29.0 25.6 87 SSW 5 G 13 29.82 1009.9 0.00 0 0.007
19 16:00 29.0 26.4 90 SW 4 G 12 29.84 1010.4 0.00 12 0.006
19 15:00 28.6 26.6 92 S 2 G 12 29.84 1010.4 0.00 44 0.005
19 14:00 28.3 25.7 90 WSW 1 G 11 29.87 1011.4 0.00 30 0.004
19 13:00 28.3 25.2 28.4 25.1 88 SW 5 G 10 29.86 1011.4 0.00 51 0.003
19 12:00 27.7 24.1 86 W 1 G 10 29.88 1012.0 0.00 70 0.002
19 11:00 27.0 23.1 85 WSW 1 G 9 29.91 1012.7 0.00 63 0.001
19 10:00 26.8 22.6 84 SSW 3 G 11 29.91 1012.7 0.00 54 0.000
19 09:00 26.3 22.1 84 SSW 2 G 8 29.90 1012.4 0.00 33 0.000
19 08:00 26.0 21.6 83 SSW 0 G 9 29.91 1012.7 0.00 5 0.000
19 07:00 25.1 21.0 25.1 22.9 84 SSW 2 G 10 29.91 1012.8 0.00 0 0.000
19 06:00 24.2 20.3 85 WSW 2 G 8 29.90 1012.7 0.00 0 0.000
19 05:00 23.1 20.1 88 S 0 G 9 29.91 1012.9 0.00 0 0.000
19 04:00 23.1 20.1 88 SSW 4 G 13 29.91 1012.9 0.00 0 0.000
19 03:00 23.6 21.4 91 SSW 3 G 10 29.91 1013.0 0.00 0 0.000
19 02:00 24.1 21.9 91 SW 2 G 5 29.92 1013.3 0.00 0 0.000
19 01:00 24.5 21.5 24.6 23.5 88 W 3 G 9 29.93 1013.6 0.00 0 0.000
19 00:00 24.5 21.5 88 WSW 3 G 9 29.95 1014.2 0.00 0 0.006
18 23:00 24.6 21.6 88 WSW 3 G 9 29.95 1014.2 0.00 0 0.006
18 22:00 24.4 21.4 88 SW 1 G 10 29.95 1014.2 0.00 0 0.006
18 21:00 24.1 20.8 87 SW 4 G 12 29.95 1014.4 0.00 0 0.006
18 20:00 23.8 20.2 86 SW 4 G 11 29.95 1014.3 0.00 0 0.006
18 19:00 23.6 20.3 24.8 23.6 87 S 3 G 10 29.96 1014.5 0.00 0 0.006
18 18:00 23.9 21.1 89 W 2 G 11 29.95 1014.4 0.00 0 0.006
18 17:00 24.3 21.3 88 WSW 2 G 14 29.95 1014.2 0.00 0 0.006
18 16:00 24.3 21.3 88 SW 3 G 11 29.96 1014.5 0.00 11 0.006
18 15:00 24.8 21.5 87 W 2 G 10 29.96 1014.5 0.00 42 0.005
18 14:00 24.6 21.0 86 SW 3 G 13 29.95 1014.2 0.00 77 0.004
18 13:00 24.0 20.4 24.0 20.7 86 WNW 4 G 11 29.95 1014.4 0.00 104 0.003
18 12:00 23.5 19.7 85 WSW 1 G 11 29.97 1014.8 0.00 65 0.002
18 11:00 23.6 20.0 86 SSW 2 G 12 29.98 1015.4 0.00 88 0.001
18 10:00 22.9 19.6 87 WSW 5 G 12 29.99 1015.5 0.00 83 0.000
18 09:00 21.5 18.5 88 SW 3 G 11 29.98 1015.3 0.00 39 0.000
18 08:00 20.8 18.1 89 SW 4 G 13 29.98 1015.2 0.00 7 0.000
18 07:00 20.7 18.2 20.8 20.3 90 S 4 G 11 29.98 1015.2 0.00 0 0.000
18 06:00 20.6 18.1 90 SW 4 G 11 29.98 1015.2 0.00 0 0.000
18 05:00 20.7 18.0 89 WSW 2 G 9 29.99 1015.6 0.00 0 0.000
18 04:00 20.7 17.7 88 S 1 G 12 30.01 1016.2 0.00 0 0.000
18 03:00 20.4 17.4 88 SSW 2 G 10 30.03 1016.9 0.00 0 0.000
18 02:00 20.6 17.3 87 SW 3 G 15 30.04 1017.2 0.00 0 0.000
18 01:00 20.3 17.1 20.4 19.1 87 SSW 3 G 11 30.03 1017.0 0.00 0 0.000
18 00:00 19.7 16.5 87 SW 5 G 13 30.04 1017.4 0.00 0 0.006
17 23:00 19.4 16.2 87 SW 6 G 15 30.07 1018.2 0.00 0 0.006
17 22:00 19.4 16.2 87 S 2 G 19 30.10 1019.2 0.00 0 0.006
17 21:00 19.7 17.0 89 S 3 G 12 30.10 1019.4 0.00 0 0.006
17 20:00 19.6 17.1 90 SW 2 G 11 30.13 1020.3 0.00 0 0.006
17 19:00 19.2 16.2 22.3 17.9 88 SSW 2 G 14 30.17 1021.6 0.00 0 0.006
17 18:00 18.0 14.8 87 SSW 3 G 12 30.19 1022.3 0.00 0 0.006
17 17:00 19.6 16.1 86 SW 3 G 14 30.20 1022.9 0.00 0 0.006
17 16:00 21.2 17.9 87 SW 4 G 13 30.22 1023.3 0.00 28 0.006

Data generated by WxSolution Version 1.9.0.6, Build 2017.01.14.